createdAt,value
2017-05-27T00:01:50.108Z,6.20
2017-05-27T00:04:16.719Z,8.45
2017-05-27T00:06:43.344Z,7.27
2017-05-27T00:09:10.144Z,7.58
2017-05-27T00:11:36.778Z,7.78
2017-05-27T00:14:03.419Z,7.30
2017-05-27T00:16:30.159Z,5.85
2017-05-27T00:18:56.770Z,6.35
2017-05-27T00:21:23.383Z,6.98
2017-05-27T00:23:50.040Z,5.78
2017-05-27T00:26:16.721Z,5.88
2017-05-27T00:28:43.343Z,5.43
2017-05-27T00:31:10.096Z,5.35
2017-05-27T00:33:36.735Z,5.18
2017-05-27T00:36:03.347Z,5.65
2017-05-27T00:38:29.983Z,5.88
2017-05-27T00:40:56.602Z,5.92
2017-05-27T00:43:23.292Z,5.68
2017-05-27T00:45:49.939Z,6.37
2017-05-27T00:48:16.555Z,6.25
2017-05-27T00:50:43.212Z,6.27
2017-05-27T00:53:09.855Z,5.92
2017-05-27T00:55:36.487Z,5.72
2017-05-27T00:58:03.099Z,5.98
2017-05-27T01:00:29.738Z,7.02
2017-05-27T01:02:56.352Z,6.80
2017-05-27T01:05:22.967Z,6.97
2017-05-27T01:07:49.609Z,6.70
2017-05-27T01:10:16.223Z,6.33
2017-05-27T01:12:42.847Z,5.63
2017-05-27T01:15:09.599Z,6.42
2017-05-27T01:17:36.219Z,6.93
2017-05-27T01:20:02.830Z,7.62
2017-05-27T01:22:29.518Z,7.47
2017-05-27T01:24:56.131Z,6.02
2017-05-27T01:27:22.747Z,6.28
2017-05-27T01:29:49.436Z,5.77
2017-05-27T01:32:16.059Z,6.80
2017-05-27T01:34:42.671Z,5.98
2017-05-27T01:37:09.311Z,5.85
2017-05-27T01:39:35.926Z,6.63
2017-05-27T01:42:02.543Z,6.05
2017-05-27T01:44:29.182Z,5.70
2017-05-27T01:46:55.794Z,7.70
2017-05-27T01:49:22.443Z,8.23
2017-05-27T01:51:49.082Z,7.97
2017-05-27T01:54:15.702Z,7.23
2017-05-27T01:56:42.322Z,7.02
2017-05-27T01:59:09.034Z,7.58
2017-05-27T02:01:35.655Z,7.17
2017-05-27T02:04:02.379Z,7.32
2017-05-27T02:06:29.023Z,7.55
2017-05-27T02:08:55.647Z,8.03
2017-05-27T02:11:22.264Z,6.97
2017-05-27T02:13:48.934Z,7.57
2017-05-27T02:16:15.555Z,7.57
2017-05-27T02:18:42.176Z,8.47
2017-05-27T02:21:08.822Z,8.02
2017-05-27T02:23:35.491Z,7.40
2017-05-27T02:26:02.111Z,7.62
2017-05-27T02:28:28.751Z,7.68
2017-05-27T02:30:55.411Z,8.17
2017-05-27T02:33:22.047Z,7.92
2017-05-27T02:35:48.687Z,8.63
2017-05-27T02:38:15.315Z,8.05
2017-05-27T02:40:41.967Z,8.02
2017-05-27T02:43:08.615Z,7.80
2017-05-27T02:45:35.239Z,7.83
2017-05-27T02:48:01.859Z,7.35
2017-05-27T02:50:28.531Z,8.25
2017-05-27T02:52:55.268Z,6.72
2017-05-27T02:55:21.890Z,8.85
2017-05-27T02:57:48.587Z,7.33
2017-05-27T03:00:15.297Z,8.28
2017-05-27T03:02:41.915Z,8.60
2017-05-27T03:05:08.558Z,8.05
2017-05-27T03:07:35.183Z,7.40
2017-05-27T03:10:01.804Z,8.03
2017-05-27T03:12:28.451Z,7.87
2017-05-27T03:14:55.067Z,7.75
2017-05-27T03:17:21.685Z,7.80
2017-05-27T03:19:48.335Z,7.93
2017-05-27T03:22:14.950Z,8.77
2017-05-27T03:24:41.566Z,7.35
2017-05-27T03:27:08.418Z,8.60
2017-05-27T03:29:35.031Z,7.77
2017-05-27T03:32:01.651Z,8.30
2017-05-27T03:34:28.291Z,8.25
2017-05-27T03:36:54.921Z,7.80
2017-05-27T03:39:21.541Z,8.95
2017-05-27T03:41:48.179Z,8.18
2017-05-27T03:44:14.803Z,9.58
2017-05-27T03:46:41.527Z,8.55
2017-05-27T03:49:08.174Z,8.20
2017-05-27T03:51:34.911Z,8.57
2017-05-27T03:54:01.547Z,8.98
2017-05-27T03:56:28.187Z,9.27
2017-05-27T03:58:54.807Z,7.90
2017-05-27T04:01:21.422Z,7.20
2017-05-27T04:03:48.102Z,9.37
2017-05-27T04:06:14.723Z,9.17
2017-05-27T04:08:41.343Z,9.32
2017-05-27T04:11:08.010Z,9.03
2017-05-27T04:13:34.627Z,8.58
2017-05-27T04:16:01.303Z,9.93
2017-05-27T04:18:27.962Z,8.93
2017-05-27T04:20:54.583Z,8.20
2017-05-27T04:23:21.199Z,7.47
2017-05-27T04:25:47.923Z,8.70
2017-05-27T04:28:14.547Z,8.30
2017-05-27T04:30:41.164Z,7.83
2017-05-27T04:33:07.874Z,8.60
2017-05-27T04:35:34.519Z,8.10
2017-05-27T04:38:01.134Z,8.20
2017-05-27T04:40:27.831Z,8.52
2017-05-27T04:42:54.501Z,8.47
2017-05-27T04:45:21.179Z,6.83
2017-05-27T04:47:47.823Z,8.68
2017-05-27T04:50:14.556Z,7.27
2017-05-27T04:52:41.175Z,7.80
2017-05-27T04:55:07.833Z,6.95
2017-05-27T04:57:34.471Z,7.03
2017-05-27T05:00:01.091Z,7.67
2017-05-27T05:02:27.752Z,7.83
2017-05-27T05:04:54.420Z,7.37
2017-05-27T05:07:21.303Z,7.68
2017-05-27T05:09:48.079Z,7.38
2017-05-27T05:12:15.572Z,8.13
2017-05-27T05:14:42.280Z,8.67
2017-05-27T05:17:08.947Z,6.72
2017-05-27T05:19:35.567Z,7.67
2017-05-27T05:22:02.226Z,8.72
2017-05-27T05:24:28.892Z,8.38
2017-05-27T05:26:55.714Z,7.88
2017-05-27T05:29:22.365Z,8.53
2017-05-27T05:31:49.062Z,9.28
2017-05-27T05:34:15.836Z,6.90
2017-05-27T05:36:44.129Z,8.33
2017-05-27T05:39:12.187Z,8.48
2017-05-27T05:41:39.133Z,7.60
2017-05-27T05:44:05.975Z,8.42
2017-05-27T05:46:33.071Z,7.38
2017-05-27T05:48:59.780Z,8.62
2017-05-27T05:51:26.834Z,7.52
2017-05-27T05:53:53.534Z,7.97
2017-05-27T05:56:20.261Z,8.08
2017-05-27T05:58:46.899Z,7.92
2017-05-27T06:01:13.555Z,7.70
2017-05-27T06:03:40.187Z,7.97
2017-05-27T06:06:06.811Z,8.27
2017-05-27T06:08:33.457Z,6.48
2017-05-27T06:11:00.099Z,7.45
2017-05-27T06:13:26.720Z,7.05
2017-05-27T06:15:53.614Z,7.02
2017-05-27T06:18:20.561Z,7.30
2017-05-27T06:20:47.273Z,7.38
2017-05-27T06:23:14.115Z,7.58
2017-05-27T06:25:40.735Z,8.25
2017-05-27T06:28:07.356Z,7.40
2017-05-27T06:30:33.999Z,7.52
2017-05-27T06:33:00.671Z,6.88
2017-05-27T06:35:27.292Z,6.77
2017-05-27T06:37:53.981Z,7.80
2017-05-27T06:40:20.693Z,7.23
2017-05-27T06:42:48.134Z,6.63
2017-05-27T06:45:14.918Z,5.95
2017-05-27T06:47:41.735Z,6.02
2017-05-27T06:50:09.150Z,7.55
2017-05-27T06:52:37.091Z,7.40
2017-05-27T06:55:04.785Z,7.75
2017-05-27T06:57:32.755Z,7.02
2017-05-27T06:59:59.531Z,6.13
2017-05-27T07:02:26.175Z,6.80
2017-05-27T07:04:52.812Z,6.40
2017-05-27T07:07:19.447Z,6.17
2017-05-27T07:09:46.066Z,7.95
2017-05-27T07:12:12.683Z,8.65
2017-05-27T07:14:39.368Z,7.85
2017-05-27T07:17:06.107Z,21.75
2017-05-27T07:19:32.728Z,9.03
2017-05-27T07:21:59.375Z,18.32
2017-05-27T07:24:25.991Z,7.47
2017-05-27T07:26:52.663Z,7.55
2017-05-27T07:29:19.411Z,10.92
2017-05-27T07:31:46.034Z,6.53
2017-05-27T07:34:12.666Z,6.42
2017-05-27T07:36:39.320Z,7.63
2017-05-27T07:39:05.963Z,5.90
2017-05-27T07:41:32.579Z,6.00
2017-05-27T07:43:59.239Z,5.32
2017-05-27T07:46:25.859Z,6.57
2017-05-27T07:48:52.474Z,5.15
2017-05-27T07:51:19.170Z,5.98
2017-05-27T07:53:45.790Z,6.57
2017-05-27T07:56:12.411Z,6.40
2017-05-27T07:58:39.075Z,6.57
2017-05-27T08:01:05.695Z,6.10
2017-05-27T08:03:32.315Z,4.93
2017-05-27T08:05:58.977Z,6.67
2017-05-27T08:08:25.590Z,5.58
2017-05-27T08:10:52.207Z,5.04
2017-05-27T08:13:18.857Z,5.25
2017-05-27T08:15:45.555Z,5.85
2017-05-27T08:18:13.184Z,5.75
2017-05-27T08:20:39.881Z,5.27
2017-05-27T08:23:06.601Z,5.75
2017-05-27T08:25:33.220Z,5.83
2017-05-27T08:27:59.974Z,4.45
2017-05-27T08:30:26.595Z,5.13
2017-05-27T08:32:58.767Z,5.72
2017-05-27T08:35:25.411Z,5.40
2017-05-27T08:37:52.063Z,5.32
2017-05-27T08:40:18.686Z,5.95
2017-05-27T08:42:45.438Z,5.32
2017-05-27T08:45:12.050Z,5.38
2017-05-27T08:47:38.675Z,5.20
2017-05-27T08:50:05.364Z,4.82
2017-05-27T08:52:32.210Z,4.80
2017-05-27T08:54:58.944Z,4.00
2017-05-27T08:57:25.583Z,4.97
2017-05-27T08:59:52.670Z,4.62
2017-05-27T09:02:19.817Z,4.38
2017-05-27T09:04:47.831Z,4.27
2017-05-27T09:07:14.777Z,4.28
2017-05-27T09:09:41.693Z,4.02
2017-05-27T09:12:08.448Z,4.43
2017-05-27T09:14:35.135Z,4.98
2017-05-27T09:17:02.212Z,4.40
2017-05-27T09:19:29.019Z,3.98
2017-05-27T09:21:55.639Z,4.98
2017-05-27T09:24:23.359Z,5.05
2017-05-27T09:26:50.336Z,4.55
2017-05-27T09:29:17.354Z,4.22
2017-05-27T09:31:44.299Z,4.22
2017-05-27T09:34:10.967Z,4.48
2017-05-27T09:36:37.884Z,4.38
2017-05-27T09:39:05.131Z,4.58
2017-05-27T09:41:32.289Z,3.83
2017-05-27T09:43:59.205Z,3.88
2017-05-27T09:46:26.283Z,3.88
2017-05-27T09:48:52.970Z,4.13
2017-05-27T09:51:19.868Z,3.98
2017-05-27T09:53:46.570Z,3.92
2017-05-27T09:56:13.360Z,3.93
2017-05-27T09:58:40.143Z,4.43
2017-05-27T10:01:08.838Z,4.05
2017-05-27T10:03:36.674Z,3.57
2017-05-27T10:06:06.348Z,3.72
2017-05-27T10:08:33.077Z,4.70
2017-05-27T10:10:59.739Z,3.80
2017-05-27T10:13:26.411Z,3.82
2017-05-27T10:15:53.043Z,4.58
2017-05-27T10:18:20.065Z,4.32
2017-05-27T10:20:47.010Z,3.75
2017-05-27T10:23:17.193Z,3.70
2017-05-27T10:25:43.941Z,4.15
2017-05-27T10:28:10.559Z,3.85
2017-05-27T10:30:37.178Z,3.82
2017-05-27T10:33:03.885Z,3.52
2017-05-27T10:35:30.528Z,4.05
2017-05-27T10:37:57.142Z,3.70
2017-05-27T10:40:23.787Z,3.95
2017-05-27T10:42:50.404Z,3.60
2017-05-27T10:45:17.015Z,4.28
2017-05-27T10:47:43.895Z,3.72
2017-05-27T10:50:10.538Z,3.77
2017-05-27T10:52:37.156Z,3.65
2017-05-27T10:55:03.816Z,3.67
2017-05-27T10:57:30.432Z,4.60
2017-05-27T10:59:57.047Z,5.00
2017-05-27T11:02:23.687Z,4.92
2017-05-27T11:04:50.307Z,3.75
2017-05-27T11:07:16.939Z,3.38
2017-05-27T11:09:43.643Z,3.40
2017-05-27T11:12:10.283Z,3.42
2017-05-27T11:14:36.909Z,3.48
2017-05-27T11:17:03.555Z,2.70
2017-05-27T11:19:30.167Z,2.83
2017-05-27T11:21:56.779Z,3.40
2017-05-27T11:24:23.462Z,2.88
2017-05-27T11:26:50.075Z,2.77
2017-05-27T11:29:16.691Z,3.28
2017-05-27T11:31:43.327Z,3.42
2017-05-27T11:34:10.033Z,2.92
2017-05-27T11:36:36.651Z,2.90
2017-05-27T11:39:03.295Z,2.87
2017-05-27T11:41:29.911Z,3.23
2017-05-27T11:43:56.591Z,2.98
2017-05-27T11:46:23.231Z,2.98
2017-05-27T11:48:49.847Z,2.38
2017-05-27T11:51:16.467Z,2.53
2017-05-27T11:53:43.146Z,2.82
2017-05-27T11:56:09.783Z,2.78
2017-05-27T11:58:36.399Z,2.72
2017-05-27T12:01:03.031Z,2.76
2017-05-27T12:03:29.651Z,2.32
2017-05-27T12:05:56.339Z,2.30
2017-05-27T12:08:22.974Z,2.32
2017-05-27T12:10:49.592Z,2.56
2017-05-27T12:13:16.206Z,1.80
2017-05-27T12:15:42.891Z,1.98
2017-05-27T12:18:09.507Z,2.32
2017-05-27T12:20:36.123Z,1.78
2017-05-27T12:23:02.767Z,1.90
2017-05-27T12:25:29.381Z,2.88
2017-05-27T12:27:56.090Z,1.84
2017-05-27T12:30:23.674Z,1.60
2017-05-27T12:32:50.287Z,1.90
2017-05-27T12:35:16.903Z,1.60
2017-05-27T12:37:43.543Z,1.96
2017-05-27T12:40:10.212Z,1.74
2017-05-27T12:42:36.833Z,1.82
2017-05-27T12:45:03.582Z,2.18
2017-05-27T12:47:30.223Z,1.90
2017-05-27T12:49:56.858Z,1.86
2017-05-27T12:52:23.503Z,1.64
2017-05-27T12:54:50.119Z,1.96
2017-05-27T12:57:16.737Z,1.70
2017-05-27T12:59:43.390Z,2.12
2017-05-27T13:02:10.011Z,2.00
2017-05-27T13:04:36.694Z,1.42
2017-05-27T13:07:03.435Z,1.60
2017-05-27T13:09:30.046Z,1.58
2017-05-27T13:11:56.714Z,1.48
2017-05-27T13:14:23.355Z,1.34
2017-05-27T13:16:49.967Z,1.44
2017-05-27T13:19:16.587Z,1.90
2017-05-27T13:21:43.274Z,1.68
2017-05-27T13:24:09.910Z,1.84
2017-05-27T13:26:36.524Z,2.18
2017-05-27T13:29:03.183Z,1.26
2017-05-27T13:31:29.846Z,1.24
2017-05-27T13:33:56.454Z,1.24
2017-05-27T13:36:23.094Z,1.60
2017-05-27T13:38:49.707Z,1.92
2017-05-27T13:41:16.334Z,1.30
2017-05-27T13:43:42.975Z,1.10
2017-05-27T13:46:09.659Z,1.30
2017-05-27T13:48:36.282Z,1.44
2017-05-27T13:51:02.958Z,1.58
2017-05-27T13:53:29.584Z,2.80
2017-05-27T13:55:56.204Z,1.80
2017-05-27T13:58:22.855Z,2.08
2017-05-27T14:00:49.475Z,3.16
2017-05-27T14:03:16.099Z,1.68
2017-05-27T14:05:42.774Z,1.14
2017-05-27T14:08:09.390Z,1.18
2017-05-27T14:10:36.008Z,1.60
2017-05-27T14:13:02.647Z,1.34
2017-05-27T14:15:29.271Z,1.32
2017-05-27T14:17:55.975Z,1.22
2017-05-27T14:20:22.615Z,1.50
2017-05-27T14:22:49.234Z,0.80
2017-05-27T14:25:15.861Z,1.20
2017-05-27T14:27:42.503Z,1.22
2017-05-27T14:30:09.167Z,1.08
2017-05-27T14:32:35.806Z,1.12
2017-05-27T14:35:02.455Z,1.08
2017-05-27T14:37:29.083Z,1.10
2017-05-27T14:39:55.695Z,0.98
2017-05-27T14:42:22.335Z,1.26
2017-05-27T14:44:48.947Z,1.78
2017-05-27T14:47:15.566Z,1.18
2017-05-27T14:49:42.202Z,1.74
2017-05-27T14:52:08.922Z,1.02
2017-05-27T14:54:35.559Z,1.68
2017-05-27T14:57:02.204Z,1.42
2017-05-27T14:59:28.844Z,1.00
2017-05-27T15:01:55.454Z,1.30
2017-05-27T15:04:22.099Z,1.84
2017-05-27T15:06:48.712Z,1.06
2017-05-27T15:09:15.396Z,1.00
2017-05-27T15:11:42.044Z,1.20
2017-05-27T15:14:08.779Z,2.54
2017-05-27T15:16:35.395Z,1.12
2017-05-27T15:19:02.051Z,1.90
2017-05-27T15:21:28.667Z,2.04
2017-05-27T15:23:55.327Z,1.22
2017-05-27T15:26:22.067Z,1.80
2017-05-27T15:28:48.710Z,2.28
2017-05-27T15:31:15.333Z,1.60
2017-05-27T15:33:42.092Z,1.28
2017-05-27T15:36:08.712Z,1.86
2017-05-27T15:38:35.369Z,1.30
2017-05-27T15:41:02.111Z,1.28
2017-05-27T15:43:28.723Z,1.40
2017-05-27T15:45:55.386Z,1.16
2017-05-27T15:48:22.233Z,1.12
2017-05-27T15:50:48.847Z,1.28
2017-05-27T15:53:15.515Z,1.22
2017-05-27T15:55:42.157Z,0.92
2017-05-27T15:58:08.791Z,1.26
2017-05-27T16:00:35.411Z,1.50
2017-05-27T16:03:02.051Z,1.48
2017-05-27T16:05:28.707Z,4.02
2017-05-27T16:07:55.320Z,2.48
2017-05-27T16:10:21.987Z,1.42
2017-05-27T16:12:48.602Z,0.90
2017-05-27T16:15:15.259Z,2.22
2017-05-27T16:17:42.360Z,1.32
2017-05-27T16:20:08.971Z,0.78
2017-05-27T16:22:35.583Z,1.00
2017-05-27T16:25:02.330Z,3.00
2017-05-27T16:27:28.943Z,4.12
2017-05-27T16:29:55.559Z,2.70
2017-05-27T16:32:22.199Z,7.18
2017-05-27T16:34:48.882Z,2.66
2017-05-27T16:37:15.523Z,1.02
2017-05-27T16:39:42.165Z,4.86
2017-05-27T16:42:08.798Z,6.36
2017-05-27T16:44:35.419Z,4.16
2017-05-27T16:47:02.074Z,1.62
2017-05-27T16:49:28.691Z,1.58
2017-05-27T16:51:55.315Z,12.96
2017-05-27T16:54:21.967Z,22.04
2017-05-27T16:56:48.595Z,10.70
2017-05-27T16:59:15.217Z,2.30
2017-05-27T17:01:41.863Z,16.64
2017-05-27T17:04:08.476Z,5.22
2017-05-27T17:06:35.091Z,7.80
2017-05-27T17:09:01.735Z,4.92
2017-05-27T17:11:28.350Z,3.78
2017-05-27T17:13:55.008Z,2.82
2017-05-27T17:16:21.638Z,5.24
2017-05-27T17:18:48.259Z,2.26
2017-05-27T17:21:14.876Z,1.86
2017-05-27T17:23:41.519Z,2.04
2017-05-27T17:26:08.203Z,2.90
2017-05-27T17:28:34.944Z,3.08
2017-05-27T17:31:01.600Z,2.23
2017-05-27T17:33:28.227Z,2.48
2017-05-27T17:35:54.851Z,1.80
2017-05-27T17:38:21.499Z,2.52
2017-05-27T17:40:48.129Z,2.07
2017-05-27T17:43:14.748Z,4.88
2017-05-27T17:45:41.396Z,2.07
2017-05-27T17:48:08.059Z,2.68
2017-05-27T17:50:34.685Z,3.35
2017-05-27T17:53:01.334Z,2.52
2017-05-27T17:55:27.964Z,2.57
2017-05-27T17:57:54.585Z,2.32
2017-05-27T18:00:21.252Z,2.27
2017-05-27T18:02:47.894Z,2.00
2017-05-27T18:05:14.511Z,2.15
2017-05-27T18:07:41.257Z,2.43
2017-05-27T18:10:07.907Z,2.92
2017-05-27T18:12:34.546Z,2.55
2017-05-27T18:15:01.391Z,2.47
2017-05-27T18:17:28.017Z,3.78
2017-05-27T18:19:54.639Z,2.37
2017-05-27T18:22:21.308Z,1.98
2017-05-27T18:24:47.922Z,2.37
2017-05-27T18:27:14.587Z,2.07
2017-05-27T18:29:41.291Z,2.28
2017-05-27T18:32:07.907Z,3.87
2017-05-27T18:34:34.607Z,2.28
2017-05-27T18:37:01.243Z,2.95
2017-05-27T18:39:27.885Z,1.98
2017-05-27T18:41:54.522Z,2.53
2017-05-27T18:44:21.264Z,1.92
2017-05-27T18:46:47.899Z,2.72
2017-05-27T18:49:14.515Z,2.18
2017-05-27T18:51:41.178Z,2.60
2017-05-27T18:54:07.798Z,2.75
2017-05-27T18:56:34.414Z,2.68
2017-05-27T18:59:01.099Z,2.88
2017-05-27T19:01:27.714Z,2.23
2017-05-27T19:03:54.377Z,2.65
2017-05-27T19:06:21.107Z,1.95
2017-05-27T19:08:47.755Z,2.08
2017-05-27T19:11:14.392Z,2.12
2017-05-27T19:13:41.039Z,2.48
2017-05-27T19:16:07.668Z,2.03
2017-05-27T19:18:34.284Z,2.35
2017-05-27T19:21:00.918Z,2.83
2017-05-27T19:23:27.531Z,3.02
2017-05-27T19:25:54.149Z,3.82
2017-05-27T19:28:21.170Z,2.93
2017-05-27T19:30:47.848Z,4.80
2017-05-27T19:33:14.459Z,3.62
2017-05-27T19:35:41.111Z,4.67
2017-05-27T19:38:07.731Z,4.75
2017-05-27T19:40:34.347Z,4.55
2017-05-27T19:43:01.007Z,6.87
2017-05-27T19:45:27.648Z,4.72
2017-05-27T19:47:54.263Z,5.38
2017-05-27T19:50:20.927Z,4.10
2017-05-27T19:52:47.545Z,3.63
2017-05-27T19:55:14.204Z,3.52
2017-05-27T19:57:40.946Z,3.10
2017-05-27T20:00:07.563Z,3.53
2017-05-27T20:02:34.179Z,3.30
2017-05-27T20:05:00.863Z,3.00
2017-05-27T20:07:27.483Z,2.50
2017-05-27T20:09:54.140Z,3.28
2017-05-27T20:12:20.778Z,2.65
2017-05-27T20:14:47.400Z,3.18
2017-05-27T20:17:14.056Z,3.07
2017-05-27T20:19:40.815Z,3.20
2017-05-27T20:22:07.439Z,2.92
2017-05-27T20:24:34.064Z,3.25
2017-05-27T20:27:00.703Z,2.67
2017-05-27T20:29:27.355Z,5.08
2017-05-27T20:31:53.971Z,5.17
2017-05-27T20:34:20.631Z,5.15
2017-05-27T20:36:47.248Z,4.45
2017-05-27T20:39:13.872Z,5.37
2017-05-27T20:41:40.524Z,5.45
2017-05-27T20:44:07.189Z,5.23
2017-05-27T20:46:33.806Z,5.20
2017-05-27T20:49:00.462Z,8.58
2017-05-27T20:51:27.084Z,6.52
2017-05-27T20:53:53.699Z,5.67
2017-05-27T20:56:20.388Z,5.60
2017-05-27T20:58:47.020Z,5.10
2017-05-27T21:01:13.667Z,5.17
2017-05-27T21:03:40.307Z,5.08
2017-05-27T21:06:06.927Z,4.80
2017-05-27T21:08:33.548Z,5.10
2017-05-27T21:11:00.195Z,4.93
2017-05-27T21:13:26.859Z,5.18
2017-05-27T21:15:53.476Z,5.67
2017-05-27T21:18:20.131Z,5.65
2017-05-27T21:20:46.754Z,5.98
2017-05-27T21:23:13.371Z,5.25
2017-05-27T21:25:40.010Z,5.18
2017-05-27T21:28:06.627Z,5.72
2017-05-27T21:30:33.331Z,9.88
2017-05-27T21:32:59.978Z,7.03
2017-05-27T21:35:26.711Z,7.38
2017-05-27T21:37:53.348Z,7.05
2017-05-27T21:40:19.991Z,6.32
2017-05-27T21:42:46.627Z,5.85
2017-05-27T21:45:13.247Z,6.25
2017-05-27T21:47:39.912Z,5.82
2017-05-27T21:50:06.527Z,6.92
2017-05-27T21:52:33.179Z,6.73
2017-05-27T21:54:59.823Z,6.03
2017-05-27T21:57:26.448Z,7.22
2017-05-27T21:59:53.099Z,7.62
2017-05-27T22:02:19.743Z,6.28
2017-05-27T22:04:46.363Z,5.37
2017-05-27T22:07:12.979Z,5.42
2017-05-27T22:09:39.655Z,5.73
2017-05-27T22:12:06.271Z,5.95
2017-05-27T22:14:32.931Z,5.75
2017-05-27T22:16:59.678Z,5.40
2017-05-27T22:19:26.292Z,5.45
2017-05-27T22:21:52.917Z,5.35
2017-05-27T22:24:19.555Z,5.17
2017-05-27T22:26:46.232Z,5.78
2017-05-27T22:29:12.848Z,5.60
2017-05-27T22:31:39.611Z,5.85
2017-05-27T22:34:06.229Z,4.58
2017-05-27T22:36:32.887Z,5.38
2017-05-27T22:38:59.531Z,6.02
2017-05-27T22:41:26.147Z,4.83
2017-05-27T22:43:52.770Z,6.40
2017-05-27T22:46:19.443Z,5.92
2017-05-27T22:48:46.059Z,7.50
2017-05-27T22:51:12.723Z,7.57
2017-05-27T22:53:39.463Z,5.87
2017-05-27T22:56:06.103Z,6.15
2017-05-27T22:58:32.739Z,5.55
2017-05-27T23:00:59.380Z,5.67
2017-05-27T23:03:25.998Z,6.15
2017-05-27T23:05:52.611Z,6.82
2017-05-27T23:08:19.251Z,5.55
2017-05-27T23:10:45.943Z,6.27
2017-05-27T23:13:12.554Z,6.02
2017-05-27T23:15:39.219Z,5.93
2017-05-27T23:18:05.839Z,7.07
2017-05-27T23:20:32.454Z,7.35
2017-05-27T23:22:59.099Z,6.68
2017-05-27T23:25:25.711Z,7.78
2017-05-27T23:27:52.411Z,7.02
2017-05-27T23:30:19.051Z,7.22
2017-05-27T23:32:45.672Z,7.05
2017-05-27T23:35:12.327Z,7.50
2017-05-27T23:37:39.072Z,6.92
2017-05-27T23:40:05.713Z,8.15
2017-05-27T23:42:32.323Z,7.58
2017-05-27T23:44:58.990Z,8.20
2017-05-27T23:47:25.623Z,6.15
2017-05-27T23:49:52.264Z,8.12
2017-05-27T23:52:18.900Z,7.65
2017-05-27T23:54:45.544Z,6.57
2017-05-27T23:57:12.163Z,6.47
2017-05-27T23:59:38.803Z,7.67
